Ashland, Montana
Current Conditions -  °F | °C
As of 1:53 AM on Wednesday 28 Jan 2015 (Local Time) from KMLS Reporting Station
Clear Clear  
Wind Chill: -1°   Ceiling: Unl
Heat Index:   Visibility: 10mi
Dew Point: -1°   Wind: 7mph
Humidity: 82%   Direction: 280°W
Pressure: 29.8"   Gusts: NA
Location:  45.62°N, 106.31°W
Report Text: KMLS 280853Z AUTO 28006KT 10SM CLR 02/M01 A2980 RMK AO2 SLP097 T00221006 53002
Loading
Personal Weather Stations






























Interactive Weather Map New forecast layout! Learn more

10-Day Weather Forecast

Advertisements
Track Severe Weather on mobile